Observation data for Hereford on 02/15/2017      Previous  Date  Next       Current Mesonet Observations  Soil Data  Daily Summary Page  Observations in Plain Language
KHES 150600Z 29008KT M02/M04 A302 RMK A01 T10171043  RH  083%=      5-min Rain = 0
KHES 150605Z 29009KT M02/M04 A302 RMK A01 T10181043  RH  083%=      5-min Rain = 0
KHES 150610Z 29009KT M02/M04 A302 RMK A01 T10181042  RH  084%=      5-min Rain = 0
KHES 150615Z 29009KT M02/M04 A302 RMK A01 T10181042  RH  084%=      5-min Rain = 0
KHES 150620Z 29009KT M02/M04 A302 RMK A01 T10181042  RH  084%=      5-min Rain = 0
KHES 150625Z 29010KT M02/M04 A302 RMK A01 T10171042  RH  084%=      5-min Rain = 0
KHES 150630Z 29010KT M02/M04 A302 RMK A01 T10161042  RH  083%=      5-min Rain = 0
KHES 150635Z 30010KT M01/M04 A302 RMK A01 T10141041  RH  082%=      5-min Rain = 0
KHES 150640Z 30009KT M01/M04 A3021 RMK A01 T10131042  RH  081%=      5-min Rain = 0
KHES 150645Z 30009KT M01/M04 A302 RMK A01 T10121041  RH  081%=      5-min Rain = 0
KHES 150650Z 31009KT M01/M04 A302 RMK A01 T10111041  RH  080%=      5-min Rain = 0
KHES 150655Z 30010KT M01/M04 A302 RMK A01 T10101042  RH  079%=      5-min Rain = 0
KHES 150700Z 30010KT M01/M04 A302 RMK A01 T10091042  RH  079%=      5-min Rain = 0
KHES 150705Z 30010KT M01/M04 A3021 RMK A01 T10091042  RH  079%=      5-min Rain = 0
KHES 150710Z 31010KT M01/M04 A3021 RMK A01 T10091042  RH  079%=      5-min Rain = 0
KHES 150715Z 31010KT M01/M04 A3021 RMK A01 T10081042  RH  078%=      5-min Rain = 0
KHES 150720Z 31010KT M01/M04 A3021 RMK A01 T10071043  RH  077%=      5-min Rain = 0
KHES 150725Z 30010KT M01/M04 A3021 RMK A01 T10061042  RH  077%=      5-min Rain = 0
KHES 150730Z 30010KT M01/M04 A3021 RMK A01 T10071042  RH  077%=      5-min Rain = 0
KHES 150735Z 30010KT M01/M04 A3021 RMK A01 T10061042  RH  077%=      5-min Rain = 0
KHES 150740Z 30010KT M01/M04 A3021 RMK A01 T10071043  RH  077%=      5-min Rain = 0
KHES 150745Z 30010KT M01/M04 A3021 RMK A01 T10081043  RH  078%=      5-min Rain = 0
KHES 150750Z 30011KT M01/M04 A3021 RMK A01 T10081043  RH  077%=      5-min Rain = 0
KHES 150755Z 30010KT M01/M04 A3021 RMK A01 T10071043  RH  077%=      5-min Rain = 0
KHES 150800Z 30010KT M01/M04 A3021 RMK A01 T10081044  RH  077%=      5-min Rain = 0
KHES 150805Z 30010KT M01/M04 A3021 RMK A01 T10091044  RH  077%=      5-min Rain = 0
KHES 150810Z 30010KT M01/M04 A3021 RMK A01 T10091044  RH  078%=      5-min Rain = 0
KHES 150815Z 30009KT M01/M05 A3021 RMK A01 T10111045  RH  078%=      5-min Rain = 0
KHES 150820Z 29009KT M01/M05 A3021 RMK A01 T10141046  RH  079%=      5-min Rain = 0
KHES 150825Z 29009KT M02/M05 A3022 RMK A01 T10161046  RH  080%=      5-min Rain = 0
KHES 150830Z 29009KT M02/M05 A3022 RMK A01 T10171046  RH  081%=      5-min Rain = 0
KHES 150835Z 30009KT M02/M05 A3022 RMK A01 T10161046  RH  080%=      5-min Rain = 0
KHES 150840Z 30009KT M01/M05 A3022 RMK A01 T10141046  RH  080%=      5-min Rain = 0
KHES 150845Z 30010KT M01/M05 A3022 RMK A01 T10131046  RH  079%=      5-min Rain = 0
KHES 150850Z 30009KT M01/M05 A3021 RMK A01 T10141046  RH  079%=      5-min Rain = 0
KHES 150855Z 30009KT M01/M05 A3022 RMK A01 T10141046  RH  079%=      5-min Rain = 0
KHES 150900Z 30009KT M02/M05 A3022 RMK A01 T10151046  RH  079%=      5-min Rain = 0
KHES 150905Z 30009KT M02/M05 A3022 RMK A01 T10151046  RH  079%=      5-min Rain = 0
KHES 150910Z 30010KT M01/M05 A3021 RMK A01 T10141047  RH  079%=      5-min Rain = 0
KHES 150915Z 31009KT M01/M05 A3021 RMK A01 T10131047  RH  078%=      5-min Rain = 0
KHES 150920Z 31010KT M01/M05 A3021 RMK A01 T10131047  RH  078%=      5-min Rain = 0
KHES 150925Z 31009KT M01/M05 A3021 RMK A01 T10131048  RH  078%=      5-min Rain = 0
KHES 150930Z 31009KT M01/M05 A3021 RMK A01 T10141048  RH  078%=      5-min Rain = 0
KHES 150935Z 31009KT M02/M05 A3021 RMK A01 T10151048  RH  079%=      5-min Rain = 0
KHES 150940Z 31009KT M02/M05 A3021 RMK A01 T10151048  RH  078%=      5-min Rain = 0
KHES 150945Z 31009KT M02/M05 A3021 RMK A01 T10161048  RH  079%=      5-min Rain = 0
KHES 150950Z 30009KT M02/M05 A3021 RMK A01 T10161049  RH  079%=      5-min Rain = 0
KHES 150955Z 31009KT M02/M05 A3021 RMK A01 T10161049  RH  079%=      5-min Rain = 0
KHES 151000Z 31009KT M02/M05 A3021 RMK A01 T10171049  RH  079%=      5-min Rain = 0
KHES 151005Z 31009KT M02/M05 A3021 RMK A01 T10171049  RH  079%=      5-min Rain = 0
KHES 151010Z 31009KT M02/M05 A3021 RMK A01 T10171049  RH  079%=      5-min Rain = 0
KHES 151015Z 31009KT M02/M05 A3021 RMK A01 T10171049  RH  079%=      5-min Rain = 0
KHES 151020Z 31009KT M02/M05 A3021 RMK A01 T10181049  RH  079%=      5-min Rain = 0
KHES 151025Z 31008KT M02/M05 A3021 RMK A01 T10201050  RH  080%=      5-min Rain = 0
KHES 151030Z 31008KT M02/M05 A3021 RMK A01 T10211050  RH  081%=      5-min Rain = 0
KHES 151035Z 32009KT M02/M05 A3021 RMK A01 T10221051  RH  081%=      5-min Rain = 0
KHES 151040Z 32010KT M02/M05 A3021 RMK A01 T10221051  RH  081%=      5-min Rain = 0
KHES 151045Z 32009KT M02/M05 A3021 RMK A01 T10221051  RH  081%=      5-min Rain = 0
KHES 151050Z 32011KT M02/M05 A3021 RMK A01 T10211051  RH  080%=      5-min Rain = 0
KHES 151055Z 32011KT M02/M05 A3021 RMK A01 T10191051  RH  079%=      5-min Rain = 0
KHES 151100Z 32011KT M02/M05 A3021 RMK A01 T10191051  RH  079%=      5-min Rain = 0
KHES 151105Z 32011KT M02/M05 A3021 RMK A01 T10201051  RH  080%=      5-min Rain = 0
KHES 151110Z 32011KT M02/M05 A3021 RMK A01 T10211051  RH  080%=      5-min Rain = 0
KHES 151115Z 32011KT M02/M05 A3021 RMK A01 T10211052  RH  080%=      5-min Rain = 0
KHES 151120Z 31010KT M02/M05 A3021 RMK A01 T10221052  RH  080%=      5-min Rain = 0
KHES 151125Z 32010KT M02/M05 A3021 RMK A01 T10231053  RH  080%=      5-min Rain = 0
KHES 151130Z 31009KT M03/M05 A3021 RMK A01 T10251053  RH  081%=      5-min Rain = 0
KHES 151135Z 31009KT M03/M05 A3022 RMK A01 T10251053  RH  081%=      5-min Rain = 0
KHES 151140Z 31008KT M03/M05 A3022 RMK A01 T10261054  RH  081%=      5-min Rain = 0
KHES 151145Z 31009KT M03/M05 A3022 RMK A01 T10251053  RH  081%=      5-min Rain = 0
KHES 151150Z 31009KT M02/M05 A3022 RMK A01 T10231053  RH  080%=      5-min Rain = 0
KHES 151155Z 31009KT M02/M05 A3022 RMK A01 T10241053  RH  080%=      5-min Rain = 0
KHES 151200Z 31008KT M02/M05 A3022 RMK A01 T10241054  RH  080%=      5-min Rain = 0
KHES 151205Z 31008KT M03/M05 A3022 RMK A01 T10251054  RH  080%=      5-min Rain = 0
KHES 151210Z 31008KT M03/M05 A3022 RMK A01 T10251054  RH  080%=      5-min Rain = 0
KHES 151215Z 31009KT M03/M05 A3022 RMK A01 T10251054  RH  080%=      5-min Rain = 0
KHES 151220Z 31009KT M03/M06 A3022 RMK A01 T10251055  RH  080%=      5-min Rain = 0
KHES 151225Z 31009KT M03/M06 A3022 RMK A01 T10251055  RH  080%=      5-min Rain = 0
KHES 151230Z 31009KT M03/M06 A3022 RMK A01 T10261055  RH  081%=      5-min Rain = 0
KHES 151235Z 31009KT M03/M06 A3022 RMK A01 T10271055  RH  081%=      5-min Rain = 0
KHES 151240Z 31008KT M03/M06 A3022 RMK A01 T10271056  RH  081%=      5-min Rain = 0
KHES 151245Z 32008KT M03/M06 A3022 RMK A01 T10281056  RH  081%=      5-min Rain = 0
KHES 151250Z 32008KT M03/M06 A3022 RMK A01 T10291057  RH  081%=      5-min Rain = 0
KHES 151255Z 32009KT M03/M06 A3022 RMK A01 T10291058  RH  081%=      5-min Rain = 0
KHES 151300Z 32009KT M03/M06 A3022 RMK A01 T10291057  RH  081%=      5-min Rain = 0
KHES 151305Z 32008KT M03/M06 A3022 RMK A01 T10301058  RH  081%=      5-min Rain = 0
KHES 151310Z 32008KT M03/M06 A3023 RMK A01 T10321059  RH  082%=      5-min Rain = 0
KHES 151315Z 32007KT M03/M06 A3023 RMK A01 T10321059  RH  082%=      5-min Rain = 0
KHES 151320Z 32007KT M03/M06 A3023 RMK A01 T10321059  RH  082%=      5-min Rain = 0
KHES 151325Z 32008KT M03/M06 A3023 RMK A01 T10321060  RH  082%=      5-min Rain = 0
KHES 151330Z 32008KT M03/M06 A3023 RMK A01 T10321060  RH  082%=      5-min Rain = 0
KHES 151335Z 32007KT M03/M06 A3023 RMK A01 T10321060  RH  081%=      5-min Rain = 0
KHES 151340Z 32007KT M03/M06 A3023 RMK A01 T10341061  RH  081%=      5-min Rain = 0
KHES 151345Z 32008KT M03/M06 A3023 RMK A01 T10331060  RH  082%=      5-min Rain = 0
KHES 151350Z 32008KT M03/M06 A3024 RMK A01 T10321060  RH  081%=      5-min Rain = 0
KHES 151355Z 32008KT M03/M06 A3024 RMK A01 T10311061  RH  080%=      5-min Rain = 0
KHES 151400Z 31009KT M03/M06 A3024 RMK A01 T10291060  RH  080%=      5-min Rain = 0
KHES 151405Z 31009KT M03/M06 A3024 RMK A01 T10271059  RH  078%=      5-min Rain = 0
KHES 151410Z 31009KT M03/M06 A3024 RMK A01 T10251059  RH  078%=      5-min Rain = 0
KHES 151415Z 32009KT M02/M06 A3025 RMK A01 T10241058  RH  078%=      5-min Rain = 0
KHES 151420Z 32009KT M02/M06 A3025 RMK A01 T10231057  RH  078%=      5-min Rain = 0
KHES 151425Z 32009KT M02/M06 A3025 RMK A01 T10211056  RH  077%=      5-min Rain = 0
KHES 151430Z 32008KT M02/M05 A3025 RMK A01 T10171054  RH  076%=      5-min Rain = 0
KHES 151435Z 32007KT M01/M05 A3025 RMK A01 T10141053  RH  075%=      5-min Rain = 0
KHES 151440Z 32007KT M01/M05 A3025 RMK A01 T10131052  RH  075%=      5-min Rain = 0
KHES 151445Z 32006KT M01/M05 A3026 RMK A01 T10111050  RH  075%=      5-min Rain = 0
KHES 151450Z 32007KT M01/M05 A3026 RMK A01 T10091049  RH  075%=      5-min Rain = 0
KHES 151455Z 32007KT M01/M05 A3026 RMK A01 T10081047  RH  075%=      5-min Rain = 0
KHES 151500Z 31006KT M01/M05 A3026 RMK A01 T10071045  RH  075%=      5-min Rain = 0
KHES 151505Z 31006KT M00/M04 A3026 RMK A01 T10041044  RH  075%=      5-min Rain = 0
KHES 151510Z 31005KT M00/M04 A3027 RMK A01 T10021043  RH  074%=      5-min Rain = 0
KHES 151515Z 31005KT 00/04 A3027 RMK A01 T00000-40  RH  075%=      5-min Rain = 0
KHES 151520Z 31004KT 00/M04 A3027 RMK A01 T00031037  RH  075%=      5-min Rain = 0
KHES 151525Z 31004KT 01/M04 A3027 RMK A01 T00061036  RH  074%=      5-min Rain = 0
KHES 151530Z 31005KT 01/M04 A3027 RMK A01 T00071036  RH  073%=      5-min Rain = 0
KHES 151535Z 31005KT 01/M03 A3027 RMK A01 T00101034  RH  073%=      5-min Rain = 0
KHES 151540Z 31006KT 01/M03 A3027 RMK A01 T00121034  RH  072%=      5-min Rain = 0
KHES 151545Z 31005KT 01/M03 A3027 RMK A01 T00141032  RH  072%=      5-min Rain = 0
KHES 151550Z 31005KT 02/M03 A3027 RMK A01 T00161030  RH  072%=      5-min Rain = 0
KHES 151555Z 31006KT 02/M03 A3027 RMK A01 T00181030  RH  071%=      5-min Rain = 0
KHES 151600Z 31006KT 02/M03 A3027 RMK A01 T00201029  RH  071%=      5-min Rain = 0
KHES 151605Z 30005KT 02/M03 A3027 RMK A01 T00221026  RH  071%=      5-min Rain = 0
KHES 151610Z 30005KT 02/M03 A3027 RMK A01 T00231026  RH  071%=      5-min Rain = 0
KHES 151615Z 30005KT 03/M03 A3027 RMK A01 T00251025  RH  070%=      5-min Rain = 0
KHES 151620Z 30005KT 03/M02 A3027 RMK A01 T00261024  RH  070%=      5-min Rain = 0
KHES 151625Z 29004KT 03/M02 A3027 RMK A01 T00281022  RH  070%=      5-min Rain = 0
KHES 151630Z 29004KT 03/M02 A3027 RMK A01 T00291021  RH  071%=      5-min Rain = 0
KHES 151635Z 28004KT 03/M02 A3027 RMK A01 T00301021  RH  070%=      5-min Rain = 0
KHES 151640Z 27003KT 03/M02 A3027 RMK A01 T00301021  RH  069%=      5-min Rain = 0
KHES 151645Z 24003KT 03/M02 A3027 RMK A01 T00301018  RH  071%=      5-min Rain = 0
KHES 151650Z 24003KT 03/M02 A3027 RMK A01 T00311019  RH  071%=      5-min Rain = 0
KHES 151655Z 24004KT 03/M02 A3027 RMK A01 T00321019  RH  070%=      5-min Rain = 0
KHES 151700Z 25004KT 03/M02 A3027 RMK A01 T00331019  RH  069%=      5-min Rain = 0
KHES 151705Z 26003KT 04/M02 A3027 RMK A01 T00361016  RH  069%=      5-min Rain = 0
KHES 151710Z 26002KT 04/M02 A3027 RMK A01 T00421015  RH  067%=      5-min Rain = 0
KHES 151715Z 26003KT 04/M02 A3027 RMK A01 T00431016  RH  066%=      5-min Rain = 0
KHES 151720Z 28003KT 05/M02 A3027 RMK A01 T00461018  RH  064%=      5-min Rain = 0
KHES 151725Z 25003KT 05/M02 A3026 RMK A01 T00471017  RH  064%=      5-min Rain = 0
KHES 151730Z 25003KT 05/M02 A3026 RMK A01 T00461020  RH  063%=      5-min Rain = 0
KHES 151735Z 23004KT 05/M02 A3026 RMK A01 T00481021  RH  062%=      5-min Rain = 0
KHES 151740Z 23004KT 05/M02 A3026 RMK A01 T00491020  RH  062%=      5-min Rain = 0
KHES 151745Z 23003KT 05/M02 A3026 RMK A01 T00521016  RH  062%=      5-min Rain = 0
KHES 151750Z 23004KT 06/M01 A3026 RMK A01 T00551013  RH  062%=      5-min Rain = 0
KHES 151755Z 23004KT 06/M02 A3025 RMK A01 T00581015  RH  060%=      5-min Rain = 0
KHES 151800Z 23004KT 06/M01 A3025 RMK A01 T00611013  RH  060%=      5-min Rain = 0
KHES 151805Z 23004KT 06/M02 A3025 RMK A01 T00631015  RH  058%=      5-min Rain = 0
KHES 151810Z 23003KT 06/M02 A3025 RMK A01 T00641017  RH  057%=      5-min Rain = 0
KHES 151815Z 23003KT 07/M02 A3024 RMK A01 T00671015  RH  056%=      5-min Rain = 0
KHES 151820Z 24004KT 07/M01 A3024 RMK A01 T00691014  RH  056%=      5-min Rain = 0
KHES 151825Z 24004KT 07/M01 A3024 RMK A01 T00711014  RH  055%=      5-min Rain = 0
KHES 151830Z 24004KT 07/M01 A3024 RMK A01 T00731014  RH  055%=      5-min Rain = 0
KHES 151835Z 23004KT 08/M02 A3023 RMK A01 T00751018  RH  052%=      5-min Rain = 0
KHES 151840Z 24003KT 08/M02 A3023 RMK A01 T00771020  RH  051%=      5-min Rain = 0
KHES 151845Z 24003KT 08/M02 A3023 RMK A01 T00801018  RH  050%=      5-min Rain = 0
KHES 151850Z 24003KT 08/M01 A3023 RMK A01 T00821014  RH  051%=      5-min Rain = 0
KHES 151855Z 23004KT 08/M02 A3022 RMK A01 T00841016  RH  050%=      5-min Rain = 0
KHES 151900Z 23003KT 09/M02 A3022 RMK A01 T00851018  RH  049%=      5-min Rain = 0.01
KHES 151905Z 24003KT 09/M02 A3022 RMK A01 T00871019  RH  048%=      5-min Rain = 0
KHES 151910Z 24002KT 09/M02 A3021 RMK A01 T00891024  RH  045%=      5-min Rain = 0
KHES 151915Z 23003KT 09/M02 A3021 RMK A01 T00901024  RH  045%=      5-min Rain = 0
KHES 151920Z 23003KT 09/M03 A3021 RMK A01 T00921033  RH  042%=      5-min Rain = 0
KHES 151925Z 25002KT 10/M03 A302 RMK A01 T00951027  RH  043%=      5-min Rain = 0
KHES 151930Z 26003KT 10/M02 A302 RMK A01 T00981019  RH  044%=      5-min Rain = 0
KHES 151935Z 28002KT 10/M02 A302 RMK A01 T01001017  RH  044%=      5-min Rain = 0
KHES 151940Z 27002KT 10/M02 A302 RMK A01 T01001021  RH  043%=      5-min Rain = 0
KHES 151945Z 30000KT 10/M02 A3019 RMK A01 T01041017  RH  043%=      5-min Rain = 0
KHES 151950Z 31001KT 11/M02 A3019 RMK A01 T01111023  RH  039%=      5-min Rain = 0
KHES 151955Z 28002KT 11/M02 A3019 RMK A01 T01101022  RH  040%=      5-min Rain = 0
KHES 152000Z 21002KT 11/M02 A3019 RMK A01 T01071024  RH  040%=      5-min Rain = 0
KHES 152005Z 23001KT 11/M02 A3018 RMK A01 T01101018  RH  041%=      5-min Rain = 0
KHES 152010Z 27003KT 11/M02 A3018 RMK A01 T01091018  RH  041%=      5-min Rain = 0
KHES 152015Z 25001KT 11/M02 A3018 RMK A01 T01111024  RH  039%=      5-min Rain = 0
KHES 152020Z 25002KT 11/M03 A3017 RMK A01 T01141033  RH  036%=      5-min Rain = 0
KHES 152025Z 32001KT 11/M03 A3017 RMK A01 T01141031  RH  036%=      5-min Rain = 0
KHES 152030Z 28001KT 12/M03 A3017 RMK A01 T01151033  RH  036%=      5-min Rain = 0
KHES 152035Z 28002KT 11/M03 A3017 RMK A01 T01131027  RH  038%=      5-min Rain = 0
KHES 152040Z 06001KT 12/M03 A3017 RMK A01 T01171033  RH  035%=      5-min Rain = 0
KHES 152045Z 27002KT 12/M03 A3016 RMK A01 T01201025  RH  037%=      5-min Rain = 0
KHES 152050Z 28002KT 12/M03 A3016 RMK A01 T01151028  RH  037%=      5-min Rain = 0
KHES 152055Z 35002KT 12/M03 A3016 RMK A01 T01191034  RH  034%=      5-min Rain = 0
KHES 152100Z 31002KT 12/M03 A3016 RMK A01 T01211028  RH  036%=      5-min Rain = 0
KHES 152105Z 33002KT 12/M03 A3016 RMK A01 T01211032  RH  034%=      5-min Rain = 0
KHES 152110Z 35002KT 12/M03 A3016 RMK A01 T01211033  RH  034%=      5-min Rain = 0
KHES 152115Z 32002KT 12/M03 A3015 RMK A01 T01211034  RH  034%=      5-min Rain = 0
KHES 152120Z 34002KT 12/M03 A3015 RMK A01 T01231025  RH  036%=      5-min Rain = 0
KHES 152125Z 25001KT 12/M04 A3015 RMK A01 T01221035  RH  033%=      5-min Rain = 0
KHES 152130Z 35002KT 13/M04 A3015 RMK A01 T01271036  RH  032%=      5-min Rain = 0
KHES 152135Z 28003KT 13/M03 A3014 RMK A01 T01251033  RH  033%=      5-min Rain = 0
KHES 152140Z 30003KT 12/M04 A3014 RMK A01 T01241038  RH  032%=      5-min Rain = 0
KHES 152145Z 29002KT 13/M04 A3014 RMK A01 T01251038  RH  032%=      5-min Rain = 0
KHES 152150Z 30001KT 13/M04 A3014 RMK A01 T01291039  RH  031%=      5-min Rain = 0
KHES 152155Z 27002KT 13/M03 A3013 RMK A01 T01321030  RH  033%=      5-min Rain = 0
KHES 152200Z 29003KT 13/M03 A3013 RMK A01 T01281031  RH  033%=      5-min Rain = 0
KHES 152205Z 30004KT 13/M04 A3013 RMK A01 T01271042  RH  031%=      5-min Rain = 0
KHES 152210Z 26003KT 13/M04 A3013 RMK A01 T01281039  RH  031%=      5-min Rain = 0
KHES 152215Z 28005KT 13/M04 A3013 RMK A01 T01261043  RH  031%=      5-min Rain = 0
KHES 152220Z 30004KT 13/M04 A3013 RMK A01 T01261043  RH  031%=      5-min Rain = 0
KHES 152225Z 26005KT 13/M03 A3012 RMK A01 T01271027  RH  034%=      5-min Rain = 0
KHES 152230Z 26003KT 13/M04 A3012 RMK A01 T01271043  RH  030%=      5-min Rain = 0
KHES 152235Z 29001KT 13/M04 A3012 RMK A01 T01331044  RH  029%=      5-min Rain = 0
KHES 152240Z 27003KT 13/M04 A3012 RMK A01 T01311039  RH  031%=      5-min Rain = 0
KHES 152245Z 23005KT 13/M04 A3012 RMK A01 T01281036  RH  032%=      5-min Rain = 0
KHES 152250Z 24004KT 13/M04 A3011 RMK A01 T01261038  RH  032%=      5-min Rain = 0
KHES 152255Z 22003KT 13/M04 A3011 RMK A01 T01281044  RH  030%=      5-min Rain = 0
KHES 152300Z 26003KT 13/M04 A3011 RMK A01 T01291044  RH  030%=      5-min Rain = 0
KHES 152305Z 27003KT 13/M04 A3011 RMK A01 T01301042  RH  030%=      5-min Rain = 0
KHES 152310Z 26002KT 13/M03 A3011 RMK A01 T01311032  RH  032%=      5-min Rain = 0
KHES 152315Z 25004KT 13/M03 A3011 RMK A01 T01291032  RH  033%=      5-min Rain = 0
KHES 152320Z 23004KT 13/M04 A3011 RMK A01 T01271043  RH  031%=      5-min Rain = 0
KHES 152325Z 23002KT 13/M05 A301 RMK A01 T01291047  RH  029%=      5-min Rain = 0
KHES 152330Z 23003KT 13/M04 A301 RMK A01 T01291036  RH  032%=      5-min Rain = 0
KHES 152335Z 24003KT 13/M04 A301 RMK A01 T01281037  RH  032%=      5-min Rain = 0
KHES 152340Z 23005KT 13/M03 A301 RMK A01 T01271027  RH  035%=      5-min Rain = 0
KHES 152345Z 24006KT 12/M02 A301 RMK A01 T01231018  RH  038%=      5-min Rain = 0
KHES 152350Z 24005KT 12/M01 A301 RMK A01 T01211012  RH  040%=      5-min Rain = 0
KHES 152355Z 23005KT 12/M02 A301 RMK A01 T01201016  RH  039%=      5-min Rain = 0
KHES 160000Z 23004KT 12/M01 A301 RMK A01 T01191012  RH  040%=      5-min Rain = 0
KHES 160005Z 23005KT 12/M02 A301 RMK A01 T01171016  RH  040%=      5-min Rain = 0
KHES 160010Z 22004KT 11/M01 A301 RMK A01 T01141013  RH  042%=      5-min Rain = 0
KHES 160015Z 21004KT 11/M01 A301 RMK A01 T01121014  RH  042%=      5-min Rain = 0
KHES 160020Z 20003KT 11/M02 A301 RMK A01 T01101024  RH  039%=      5-min Rain = 0
KHES 160025Z 20004KT 11/M03 A301 RMK A01 T01091029  RH  038%=      5-min Rain = 0
KHES 160030Z 20004KT 11/M02 A301 RMK A01 T01051024  RH  041%=      5-min Rain = 0
KHES 160035Z 20003KT 10/M02 A301 RMK A01 T00981018  RH  045%=      5-min Rain = 0
KHES 160040Z 19004KT 10/M03 A301 RMK A01 T00971031  RH  041%=      5-min Rain = 0
KHES 160045Z 18006KT 09/M03 A301 RMK A01 T00941034  RH  041%=      5-min Rain = 0
KHES 160050Z 18005KT 09/M02 A301 RMK A01 T00911024  RH  045%=      5-min Rain = 0
KHES 160055Z 17005KT 09/M02 A301 RMK A01 T00861020  RH  048%=      5-min Rain = 0
KHES 160100Z 17005KT 08/M02 A301 RMK A01 T00791016  RH  052%=      5-min Rain = 0
KHES 160105Z 17004KT 08/M01 A301 RMK A01 T00791013  RH  053%=      5-min Rain = 0
KHES 160110Z 16005KT 08/M01 A301 RMK A01 T00761012  RH  054%=      5-min Rain = 0
KHES 160115Z 17006KT 08/M01 A301 RMK A01 T00751011  RH  055%=      5-min Rain = 0
KHES 160120Z 17005KT 07/M01 A301 RMK A01 T00731011  RH  056%=      5-min Rain = 0
KHES 160125Z 17005KT 07/M01 A301 RMK A01 T00721012  RH  056%=      5-min Rain = 0
KHES 160130Z 17006KT 07/M01 A301 RMK A01 T00731014  RH  055%=      5-min Rain = 0
KHES 160135Z 17006KT 07/M02 A301 RMK A01 T00721016  RH  054%=      5-min Rain = 0
KHES 160140Z 16005KT 07/M02 A301 RMK A01 T00711017  RH  054%=      5-min Rain = 0
KHES 160145Z 16005KT 07/M02 A301 RMK A01 T00691018  RH  054%=      5-min Rain = 0
KHES 160150Z 16004KT 07/M02 A301 RMK A01 T00681019  RH  054%=      5-min Rain = 0
KHES 160155Z 16004KT 07/M02 A301 RMK A01 T00681019  RH  054%=      5-min Rain = 0
KHES 160200Z 16004KT 07/M02 A301 RMK A01 T00691019  RH  054%=      5-min Rain = 0
KHES 160205Z 16004KT 07/M02 A301 RMK A01 T00681020  RH  054%=      5-min Rain = 0
KHES 160210Z 16005KT 07/M02 A301 RMK A01 T00671020  RH  054%=      5-min Rain = 0
KHES 160215Z 17005KT 06/M02 A301 RMK A01 T00631020  RH  056%=      5-min Rain = 0
KHES 160220Z 16005KT 06/M02 A301 RMK A01 T00621018  RH  057%=      5-min Rain = 0
KHES 160225Z 17005KT 06/M02 A3011 RMK A01 T00621017  RH  057%=      5-min Rain = 0
KHES 160230Z 17005KT 06/M02 A3011 RMK A01 T00601018  RH  058%=      5-min Rain = 0
KHES 160235Z 17005KT 06/M02 A3011 RMK A01 T00581019  RH  058%=      5-min Rain = 0
KHES 160240Z 17005KT 06/M02 A3011 RMK A01 T00551019  RH  060%=      5-min Rain = 0
KHES 160245Z 17005KT 05/M02 A3011 RMK A01 T00501018  RH  062%=      5-min Rain = 0
KHES 160250Z 18006KT 05/M02 A3011 RMK A01 T00481018  RH  063%=      5-min Rain = 0
KHES 160255Z 18006KT 04/M02 A3011 RMK A01 T00441018  RH  065%=      5-min Rain = 0
KHES 160300Z 18005KT 04/M02 A3011 RMK A01 T00421017  RH  066%=      5-min Rain = 0
KHES 160305Z 19004KT 04/M02 A3011 RMK A01 T00421017  RH  066%=      5-min Rain = 0
KHES 160310Z 19004KT 04/M02 A3011 RMK A01 T00441015  RH  066%=      5-min Rain = 0
KHES 160315Z 19004KT 04/M02 A3011 RMK A01 T00431016  RH  066%=      5-min Rain = 0
KHES 160320Z 19005KT 04/M02 A3011 RMK A01 T00431015  RH  066%=      5-min Rain = 0
KHES 160325Z 19005KT 04/M02 A3012 RMK A01 T00421017  RH  066%=      5-min Rain = 0
KHES 160330Z 20005KT 04/M02 A3012 RMK A01 T00421017  RH  066%=      5-min Rain = 0
KHES 160335Z 20006KT 04/M02 A3012 RMK A01 T00411017  RH  066%=      5-min Rain = 0
KHES 160340Z 21006KT 04/M02 A3012 RMK A01 T00381016  RH  068%=      5-min Rain = 0
KHES 160345Z 21006KT 04/M01 A3011 RMK A01 T00371014  RH  070%=      5-min Rain = 0
KHES 160350Z 22006KT 04/M01 A3011 RMK A01 T00351014  RH  071%=      5-min Rain = 0
KHES 160355Z 22006KT 04/M01 A3011 RMK A01 T00361013  RH  071%=      5-min Rain = 0
KHES 160400Z 23005KT 03/M01 A3011 RMK A01 T00321014  RH  073%=      5-min Rain = 0
KHES 160405Z 22006KT 03/M01 A3011 RMK A01 T00271014  RH  075%=      5-min Rain = 0
KHES 160410Z 23006KT 03/M01 A3011 RMK A01 T00271014  RH  075%=      5-min Rain = 0
KHES 160415Z 23006KT 03/M01 A3011 RMK A01 T00251013  RH  077%=      5-min Rain = 0
KHES 160420Z 23005KT 02/M01 A3011 RMK A01 T00221014  RH  078%=      5-min Rain = 0
KHES 160425Z 23005KT 02/M01 A3011 RMK A01 T00201013  RH  079%=      5-min Rain = 0
KHES 160430Z 24006KT 02/M01 A3011 RMK A01 T00191014  RH  079%=      5-min Rain = 0
KHES 160435Z 24006KT 02/M02 A3011 RMK A01 T00161015  RH  080%=      5-min Rain = 0
KHES 160440Z 22006KT 02/M02 A3011 RMK A01 T00151015  RH  081%=      5-min Rain = 0
KHES 160445Z 22006KT 02/M02 A3011 RMK A01 T00171016  RH  079%=      5-min Rain = 0
KHES 160450Z 22005KT 02/M02 A3011 RMK A01 T00191018  RH  077%=      5-min Rain = 0
KHES 160455Z 23005KT 02/M02 A301 RMK A01 T00161019  RH  078%=      5-min Rain = 0
KHES 160500Z 22005KT 01/M02 A301 RMK A01 T00141019  RH  079%=      5-min Rain = 0
KHES 160505Z 23005KT 01/M02 A301 RMK A01 T00141020  RH  079%=      5-min Rain = 0
KHES 160510Z 23005KT 01/M02 A301 RMK A01 T00131020  RH  080%=      5-min Rain = 0
KHES 160515Z 23006KT 01/M02 A301 RMK A01 T00111021  RH  080%=      5-min Rain = 0
KHES 160520Z 23006KT 01/M02 A301 RMK A01 T00111021  RH  080%=      5-min Rain = 0
KHES 160525Z 23006KT 01/M02 A301 RMK A01 T00101021  RH  080%=      5-min Rain = 0
KHES 160530Z 24006KT 01/M02 A3009 RMK A01 T00101022  RH  080%=      5-min Rain = 0
KHES 160535Z 24006KT 01/M02 A3009 RMK A01 T00081023  RH  080%=      5-min Rain = 0
KHES 160540Z 24006KT 01/M02 A3009 RMK A01 T00061024  RH  081%=      5-min Rain = 0
KHES 160545Z 25007KT 01/M03 A3009 RMK A01 T00051025  RH  081%=      5-min Rain = 0
KHES 160550Z 25007KT 00/M03 A3009 RMK A01 T00031025  RH  082%=      5-min Rain = 0
KHES 160555Z 24007KT 00/M03 A3009 RMK A01 T00031026  RH  081%=      5-min Rain = 0

Page generated in 0.0362 seconds.